Moretown, VT (05660)

03:00 EDT le 03 septembre 2014 (GMT -0400)
Stevens Brook Road | Change Station
CLOSE
Current Station
Stations météorologiques personnelles
Location: Moretown, VT
Altitude: 680 ft
Stations météo à proximité

Alt. 680 ft 44.27 °N, 72.75 °W | Updated 26 seconds ago

Partiellement nuageux
Partiellement nuageux
63.1 ° F
Paraît 63.1 ° F
N
0.0
Vent Variable Vent de Nord
Gusts 0.0 mph

Aujourd'hui
Haut(e) -- | Bas -- ° F
--% Risque de précip.
Hier
Haut(e) -- | Bas -- ° F
Precip. -- pouce
6:16 AM 7:23 PM
Premier quartier, 59% visible
Pression 29.84 pouce
Visibilité 10.0 Miles terrestres
Nuages Peu 1200 ft
Nuageux 3900 ft
Point de rosée 57 ° F
Humidité 81%
Précipitations 0.00 pouce
Profondeur de la couche neigeuse Non disponible.
UV 0 sur 12
Pollen 5.20 sur 12
PM2.5 Bon
Flu Activity Non disponible.
METAR KMPV 030651Z AUTO 27004KT 10SM FEW012 BKN039 17/16 A2985 RMK AO2 SLP103 T01670161

More Conditions Fewer Conditions

Pression 29.84 pouce
Visibilité 10.0 Miles terrestres
Nuages Peu 1200 ft
Nuageux 3900 ft
Point de rosée 57 ° F
Humidité 81%
Précipitations 0.00 pouce
Profondeur de la couche neigeuse Non disponible.
UV 0 sur 12
Pollen 5.20 sur 12
PM2.5 Bon
Flu Activity Non disponible.
METAR KMPV 030651Z AUTO 27004KT 10SM FEW012 BKN039 17/16 A2985 RMK AO2 SLP103 T01670161

More Conditions Fewer Conditions

10-Day Weather Forecast

Almanac

Astronomie

Sep. 03, 2014 Lever Coucher
Temps réel 06:16 EDT 19:23 EDT
Crépuscule civil 05:46 EDT 19:53 EDT
Crépuscule nautique 05:10 EDT 20:28 EDT
Crépuscule astronomique 04:33 EDT 21:06 EDT
Lune 15:10 EDT 00:00 EDT
Durée de lumière visible 14h 06m
Longueur du jour
13h 07m
Tomorrow will be 2m 57s shorter.
Premier quartier, 59% of the Moon is Illuminated
Aujourd'hui
Premier quartier
Sep 8
Pleine lune
Sep 15
Dernier quartier
Sep 24
Nouveau
Oct 1
Premier quartier

Extrêmes aujourd'hui

State Highs State Lows

Community

WunderPhotos

Upload Photos

1,749,888 Photos téléchargées !

Nearby

Qualité de l'air

  Qualité de l'air Indice de la qualité de l'air Polluant
Hier Bon
OZONE
Hier Bon
PM2.5
Actuel Bon
PM2.5
mercredi Bon
PM2.5
mercredi Bon
OZONE
jeudi Bon
PM2.5
jeudi Bon
OZONE

Épaisseur de neige

Station Depth Altitude
Pas de nouvelles chutes de neige

Activité sismique

Ville Distance Mag. Time & Date
No recent earthquake activity has been reported nearby.
Minimum magnitude displayed is 2.5.

Températures des eaux côtières

Lieu Température
Aucun rapport de station

Stations météo à proximité